CYKP

Ogoki Post

Ogoki Post, Ontario, Canada
METAR CYKP 161300Z AUTO 21011G22KT 180V240 9SM CLR 02/M03 A2945 RMK ICG SLP983
Observed Flight Rules
Dec-16 @ 13:00 UTC (55 minutes ago) Visual Flight Rules
Wind Visibility Clouds
210° at 11 knots
 Gusting to 22 knots
9 miles
  • Clear skies
Temperatures Readings
Current 2°C / 36°F
Dewpoint -3°C / 27°F
Humidity 70%
Altimeter 29.45" Hg
Pressure 998.3 hPa
Elevation 179
METAR CYKP 161300Z AUTO 21011G22KT 180V240 9SM CLR 02/M03 A2945 RMK ICG SLP983
Observed Flight Rules
Dec-16 @ 13:00 UTC
(55 minutes ago)
VFR
Wind Visibility
210° at 11 knots
 Gusting to 22 knots
9 miles
Clouds
  • Clear skies
Temperature Dewpoint
2°C / 36°F -3°C / 27°F
Humidity Altimeter Pressure
70% 29.45" Hg 998.3 hPa